Ashland, Louisiana
Current Conditions -  °F | °C
As of 12:55 AM on Thursday 23 Oct 2014 (Local Time) from KIER Reporting Station
Clear Clear  
Wind Chill: 14°   Ceiling: Unl
Heat Index: 14°   Visibility: 10mi
Dew Point: 11°   Wind: 5mph
Humidity: 84%   Direction: 60°ENE
Pressure: 30.13"   Gusts: NA
Location:  32.14°N, 93.1°W
Report Text: KIER 230555Z AUTO 06004KT 10SM CLR 14/11 A3013 RMK AO2 T01400113 10204 20140 402600120
Loading
Personal Weather Stations






























Interactive Weather Map
Tropical Storm Tracking
New forecast layout! Learn more

10-Day Weather Forecast

Advertisements
Track Severe Weather on mobile